Time;durP1;ratioP1;P1;durP2;ratioP2;P2;SDS_P1;SDS_P2;PMS_P1;PMS_P2;Temp;Humidity;BMP_temperature;BMP_pressure;BME280_temperature;BME280_humidity;BME280_pressure;Samples;Min_cycle;Max_cycle;Signal;HPM_P1;HPM_P2
2023/10/27 00:02:15;;;;;;;8.52;6.97;;;;;;;19.39;92.43;99215.69;5025432;28;20791;-42
2023/10/27 00:04:41;;;;;;;8.98;8.02;;;;;;;19.39;92.55;99212.94;5025055;28;20062;-42
2023/10/27 00:07:06;;;;;;;9.00;7.18;;;;;;;19.37;92.79;99216.03;5058809;28;20032;-41
2023/10/27 00:09:34;;;;;;;9.10;7.28;;;;;;;19.37;92.72;99216.03;5000069;28;20041;-42
2023/10/27 00:12:00;;;;;;;7.68;6.97;;;;;;;19.35;92.63;99211.94;5027907;28;20124;-41
2023/10/27 00:14:25;;;;;;;9.05;7.38;;;;;;;19.36;92.92;99206.16;5027005;28;20541;-42
2023/10/27 00:16:52;;;;;;;10.63;9.48;;;;;;;19.35;93.05;99209.22;5025327;28;20043;-41
2023/10/27 00:19:18;;;;;;;10.73;8.55;;;;;;;19.34;93.08;99204.88;5027955;28;20037;-42
2023/10/27 00:21:43;;;;;;;9.25;8.20;;;;;;;19.34;92.82;99200.16;5027706;28;20044;-41
2023/10/27 00:24:09;;;;;;;10.07;8.73;;;;;;;19.33;93.05;99200.50;5027400;28;20033;-56
2023/10/27 00:26:34;;;;;;;9.05;8.00;;;;;;;19.32;93.27;99201.63;5025104;28;20102;-41
2023/10/27 00:29:00;;;;;;;11.07;9.13;;;;;;;19.32;92.93;99201.63;5059737;28;20639;-41
2023/10/27 00:31:25;;;;;;;10.90;9.63;;;;;;;19.30;92.94;99196.47;5025626;28;20079;-41
2023/10/27 00:33:50;;;;;;;11.68;9.27;;;;;;;19.30;93.19;99192.91;5026237;28;20488;-41
2023/10/27 00:36:17;;;;;;;10.18;9.00;;;;;;;19.30;93.53;99193.72;5026333;28;20036;-43
2023/10/27 00:38:45;;;;;;;12.75;9.85;;;;;;;19.30;93.21;99190.16;5027812;28;20893;-41
2023/10/27 00:41:11;;;;;;;17.95;12.05;;;;;;;19.29;93.17;99180.28;5025707;28;20155;-43
2023/10/27 00:43:37;;;;;;;12.85;10.32;;;;;;;19.28;93.24;99187.75;5059016;28;20109;-42
2023/10/27 00:46:02;;;;;;;12.63;10.90;;;;;;;19.28;93.41;99181.44;5023502;28;20045;-57
2023/10/27 00:48:28;;;;;;;14.48;11.77;;;;;;;19.27;93.58;99177.88;5026777;28;20116;-57
2023/10/27 00:50:54;;;;;;;17.20;12.82;;;;;;;19.27;93.46;99177.88;5024834;28;20029;-41
2023/10/27 00:53:23;;;;;;;15.32;12.35;;;;;;;19.26;93.63;99178.22;5026036;28;20036;-43
2023/10/27 00:55:49;;;;;;;17.20;12.63;;;;;;;19.26;93.55;99172.72;5039588;28;20024;-42
2023/10/27 00:58:15;;;;;;;17.20;13.10;;;;;;;19.24;93.58;99179.34;5025453;28;20040;-41
2023/10/27 01:00:41;;;;;;;17.90;13.80;;;;;;;19.24;93.84;99170.31;5025224;28;20717;-41
2023/10/27 01:03:07;;;;;;;16.42;13.20;;;;;;;19.24;94.00;99167.56;5026345;28;20090;-41
2023/10/27 01:05:32;;;;;;;18.05;13.45;;;;;;;19.24;94.13;99170.31;5026327;28;20393;-41
2023/10/27 01:07:58;;;;;;;15.45;13.07;;;;;;;19.22;93.77;99165.13;5027323;28;20064;-57
2023/10/27 01:10:24;;;;;;;17.80;14.20;;;;;;;19.22;94.15;99167.06;5024365;28;20506;-57
2023/10/27 01:12:50;;;;;;;18.08;13.95;;;;;;;19.22;94.15;99162.38;5026027;28;21300;-57
2023/10/27 01:15:17;;;;;;;16.23;13.80;;;;;;;19.22;93.93;99167.06;5026650;28;20769;-57
2023/10/27 01:17:43;;;;;;;17.38;14.77;;;;;;;19.22;94.02;99161.56;5026560;28;20058;-57
2023/10/27 01:20:09;;;;;;;17.40;14.07;;;;;;;19.21;94.04;99157.22;5023688;28;20044;-57
2023/10/27 01:22:43;;;;;;;17.65;14.02;;;;;;;19.19;94.17;99165.78;5027319;28;20059;-57
2023/10/27 01:25:08;;;;;;;16.95;14.20;;;;;;;19.19;94.23;99157.53;5057139;28;20461;-42
2023/10/27 01:27:34;;;;;;;17.50;14.73;;;;;;;19.20;94.44;99161.09;5026545;28;20036;-42
2023/10/27 01:30:00;;;;;;;18.63;14.77;;;;;;;19.19;94.32;99154.81;5010976;28;20090;-58
2023/10/27 01:32:25;;;;;;;18.15;14.50;;;;;;;19.19;94.54;99156.72;5023608;28;21419;-57
2023/10/27 01:34:51;;;;;;;19.13;14.18;;;;;;;19.18;94.42;99150.44;5058212;28;20045;-58
2023/10/27 01:37:16;;;;;;;16.70;13.48;;;;;;;19.18;94.52;99144.16;5022750;28;20029;-43
2023/10/27 01:39:41;;;;;;;18.17;14.10;;;;;;;19.18;94.89;99144.16;5057671;28;20040;-42
2023/10/27 01:42:07;;;;;;;17.48;14.38;;;;;;;19.18;94.69;99152.38;5040397;28;20037;-41
2023/10/27 01:44:32;;;;;;;17.77;14.25;;;;;;;19.16;94.48;99147.19;5024792;28;20394;-44
2023/10/27 01:47:00;;;;;;;15.40;12.88;;;;;;;19.16;94.86;99146.41;5026162;28;20130;-43
2023/10/27 01:49:26;;;;;;;15.43;12.75;;;;;;;19.15;94.67;99145.59;5025575;28;20040;-42
2023/10/27 01:51:52;;;;;;;15.45;12.40;;;;;;;19.16;94.94;99147.19;5023785;28;20036;-58
2023/10/27 01:54:17;;;;;;;15.70;12.65;;;;;;;19.14;95.02;99146.75;5025948;28;20546;-43
2023/10/27 01:56:42;;;;;;;14.23;12.27;;;;;;;19.15;95.16;99142.03;5057114;28;20349;-42
2023/10/27 01:59:08;;;;;;;15.25;11.90;;;;;;;19.15;94.86;99147.53;5025620;28;21101;-41
2023/10/27 02:01:33;;;;;;;15.55;11.98;;;;;;;19.14;95.09;99145.91;5024717;28;20036;-56
2023/10/27 02:03:59;;;;;;;12.48;10.70;;;;;;;19.13;95.25;99139.63;5027377;28;20025;-56
2023/10/27 02:06:26;;;;;;;13.48;11.57;;;;;;;19.13;94.96;99145.13;5025097;28;20066;-41
2023/10/27 02:08:51;;;;;;;13.60;11.15;;;;;;;19.12;95.49;99134.47;5057838;28;20043;-58
2023/10/27 02:11:17;;;;;;;13.07;10.57;;;;;;;19.12;95.52;99138.00;4995922;28;20037;-58
2023/10/27 02:13:42;;;;;;;11.13;9.88;;;;;;;19.12;95.56;99134.47;5058626;28;20041;-57
2023/10/27 02:16:08;;;;;;;11.85;10.10;;;;;;;19.12;95.15;99128.97;5024234;28;20103;-54
2023/10/27 02:18:33;;;;;;;11.70;9.25;;;;;;;19.11;95.23;99124.63;5025422;28;20072;-42
2023/10/27 02:20:58;;;;;;;12.95;10.25;;;;;;;19.10;95.32;99125.75;5025049;28;20066;-42
2023/10/27 02:23:25;;;;;;;10.05;8.70;;;;;;;19.10;95.67;99126.53;5056924;28;20567;-43
2023/10/27 02:25:52;;;;;;;11.07;8.90;;;;;;;19.10;95.38;99129.28;5025557;28;20568;-42
2023/10/27 02:28:18;;;;;;;9.85;8.57;;;;;;;19.10;95.54;99131.22;5027460;28;20066;-57
2023/10/27 02:30:43;;;;;;;11.07;8.35;;;;;;;19.09;95.42;99130.41;5029107;28;20051;-41
2023/10/27 02:33:08;;;;;;;9.02;8.10;;;;;;;19.07;95.85;99125.25;5060280;28;20083;-56
2023/10/27 02:35:34;;;;;;;9.43;7.95;;;;;;;19.07;95.75;99125.25;5029102;28;20175;-56
2023/10/27 02:37:59;;;;;;;8.57;7.40;;;;;;;19.07;95.45;99124.47;5029419;28;20062;-57
2023/10/27 02:40:25;;;;;;;9.25;8.20;;;;;;;19.07;95.51;99124.47;5061393;28;20507;-57
2023/10/27 02:42:50;;;;;;;8.15;6.82;;;;;;;19.07;95.67;99127.19;5029487;28;20770;-58
2023/10/27 02:45:15;;;;;;;7.80;7.00;;;;;;;19.06;96.04;99128.31;5028757;28;20059;-58
2023/10/27 02:47:41;;;;;;;7.78;6.75;;;;;;;19.05;96.03;99119.25;5030204;28;22219;-56
2023/10/27 02:50:07;;;;;;;7.15;6.32;;;;;;;19.05;95.97;99123.97;5059911;28;20534;-41
2023/10/27 02:52:32;;;;;;;8.25;6.57;;;;;;;19.03;95.93;99115.22;5061677;28;20037;-41
2023/10/27 02:54:58;;;;;;;8.32;6.30;;;;;;;19.04;95.91;99123.16;5027030;28;20039;-58
2023/10/27 02:57:23;;;;;;;7.03;6.30;;;;;;;19.04;96.04;99128.66;5029102;28;20033;-42
2023/10/27 02:59:49;;;;;;;6.95;6.18;;;;;;;19.02;95.93;99114.44;5026465;28;20556;-42
2023/10/27 03:02:14;;;;;;;5.75;5.05;;;;;;;19.03;96.29;99120.72;5029800;28;20611;-56
2023/10/27 03:04:40;;;;;;;6.03;5.43;;;;;;;19.02;96.11;99119.94;5027811;28;20032;-57
2023/10/27 03:07:05;;;;;;;6.10;5.35;;;;;;;19.01;96.05;99121.06;5028011;28;20664;-57
2023/10/27 03:09:31;;;;;;;5.75;5.15;;;;;;;19.01;96.29;99115.56;5028755;28;20045;-57
2023/10/27 03:11:56;;;;;;;5.35;4.85;;;;;;;19.01;96.24;99125.75;5028470;28;20037;-58
2023/10/27 03:14:21;;;;;;;5.47;4.88;;;;;;;19.00;96.35;99116.69;5027672;28;20040;-57
2023/10/27 03:16:47;;;;;;;5.88;5.20;;;;;;;19.00;96.31;99116.69;5028321;28;20039;-42
2023/10/27 03:19:12;;;;;;;5.28;4.78;;;;;;;19.00;96.50;99111.19;5050099;28;20277;-42
2023/10/27 03:21:38;;;;;;;4.50;4.10;;;;;;;18.99;96.35;99120.56;5017700;28;20132;-42
2023/10/27 03:24:05;;;;;;;5.30;4.40;;;;;;;19.00;96.39;99118.66;5026867;28;20033;-41
2023/10/27 03:26:30;;;;;;;4.45;4.05;;;;;;;18.99;96.57;99117.81;5059713;28;20083;-42
2023/10/27 03:28:56;;;;;;;4.45;4.05;;;;;;;18.99;96.75;99114.28;5026923;28;20115;-41
2023/10/27 03:31:21;;;;;;;5.18;4.20;;;;;;;18.99;96.50;99119.78;5027506;28;20035;-41
2023/10/27 03:33:47;;;;;;;4.10;3.70;;;;;;;18.99;96.76;99114.28;5059132;28;20040;-57
2023/10/27 03:36:12;;;;;;;4.30;3.90;;;;;;;18.98;96.87;99115.41;5028056;28;20028;-42
2023/10/27 03:38:37;;;;;;;5.55;3.65;;;;;;;18.97;97.00;99109.13;5027677;28;20263;-42
2023/10/27 03:41:03;;;;;;;6.07;3.70;;;;;;;18.95;96.78;99108.63;5028416;28;20040;-42
2023/10/27 03:43:29;;;;;;;4.38;3.78;;;;;;;18.96;96.88;99104.75;5026553;28;20036;-41
2023/10/27 03:45:54;;;;;;;5.38;3.20;;;;;;;18.96;97.20;99110.25;5026960;28;20044;-42
2023/10/27 03:48:19;;;;;;;3.35;3.05;;;;;;;18.96;96.84;99113.00;5027008;28;20697;-41
2023/10/27 03:50:45;;;;;;;3.60;3.30;;;;;;;18.96;96.96;99112.16;5026959;28;20305;-41
2023/10/27 03:53:10;;;;;;;3.63;3.00;;;;;;;18.96;97.17;99109.44;5028154;28;20499;-41
2023/10/27 03:55:36;;;;;;;4.45;3.10;;;;;;;18.95;97.07;99105.09;5027201;28;20028;-41
2023/10/27 03:58:15;;;;;;;3.90;3.30;;;;;;;18.95;97.24;99102.34;5060281;28;20133;-41
2023/10/27 04:00:41;;;;;;;3.70;3.38;;;;;;;18.95;97.37;99102.34;5027236;28;20072;-41
2023/10/27 04:03:06;;;;;;;2.97;2.60;;;;;;;18.94;97.39;99101.53;5026859;28;20040;-56
2023/10/27 04:05:32;;;;;;;2.90;2.60;;;;;;;18.93;97.38;99105.41;5028581;28;20127;-56
2023/10/27 04:07:57;;;;;;;2.95;2.70;;;;;;;18.93;97.50;99102.66;5056898;28;20063;-57
2023/10/27 04:10:22;;;;;;;3.08;2.55;;;;;;;18.96;97.51;99102.00;5016757;28;20183;-55
2023/10/27 04:12:48;;;;;;;2.85;2.65;;;;;;;19.01;97.34;99095.56;5026994;28;20539;-56
2023/10/27 04:15:13;;;;;;;2.75;2.40;;;;;;;19.06;97.43;99104.41;5025750;28;20067;-57
2023/10/27 04:17:39;;;;;;;3.70;2.30;;;;;;;19.14;96.74;99107.47;5024246;28;20036;-57
2023/10/27 04:20:05;;;;;;;2.47;2.28;;;;;;;19.21;96.39;99096.78;5026812;28;20597;-57
2023/10/27 04:22:31;;;;;;;3.33;2.42;;;;;;;19.32;96.31;99100.00;5027608;28;20067;-57
2023/10/27 04:24:56;;;;;;;2.63;2.22;;;;;;;19.43;95.41;99100.47;5026822;28;20403;-56
2023/10/27 04:27:21;;;;;;;4.15;2.30;;;;;;;19.56;95.14;99099.44;5059255;28;20052;-56
2023/10/27 04:29:47;;;;;;;2.45;2.25;;;;;;;19.66;94.57;99099.06;5026716;28;20479;-57
2023/10/27 04:32:15;;;;;;;2.20;2.00;;;;;;;19.82;94.50;99101.28;5024924;28;20032;-57
2023/10/27 04:34:44;;;;;;;2.30;2.10;;;;;;;19.95;93.98;99094.75;5027273;28;20041;-55
2023/10/27 04:37:10;;;;;;;2.30;2.03;;;;;;;20.09;93.62;99104.72;5026066;28;20471;-55
2023/10/27 04:39:35;;;;;;;2.10;1.90;;;;;;;20.21;92.76;99104.78;5026890;28;20040;-57
2023/10/27 04:42:00;;;;;;;3.00;2.10;;;;;;;20.33;92.47;99110.38;5025784;28;20033;-58
2023/10/27 04:44:26;;;;;;;2.22;2.03;;;;;;;20.45;91.66;99114.34;5026272;28;20107;-57
2023/10/27 04:46:51;;;;;;;1.88;1.75;;;;;;;20.53;91.67;99110.72;5026082;28;20082;-57
2023/10/27 04:49:18;;;;;;;3.42;2.10;;;;;;;20.63;91.55;99110.31;5025574;28;20032;-41
2023/10/27 04:51:44;;;;;;;2.08;1.98;;;;;;;20.74;91.26;99112.69;5058638;28;20032;-42
2023/10/27 04:54:10;;;;;;;2.28;2.08;;;;;;;20.84;90.94;99109.53;5040130;28;20129;-58
2023/10/27 04:56:35;;;;;;;2.05;1.90;;;;;;;20.92;90.26;99113.31;5025734;28;20489;-43
2023/10/27 04:59:01;;;;;;;2.00;1.80;;;;;;;20.97;90.31;99116.69;5022517;28;20168;-58
2023/10/27 05:01:26;;;;;;;1.90;1.80;;;;;;;21.03;89.72;99116.47;5025582;28;20056;-57
2023/10/27 05:03:52;;;;;;;2.85;1.77;;;;;;;21.04;89.51;99113.41;5027047;28;20867;-56
2023/10/27 05:06:17;;;;;;;2.10;1.90;;;;;;;21.03;89.89;99111.78;5056780;28;20457;-56
2023/10/27 05:08:42;;;;;;;1.90;1.80;;;;;;;21.01;90.03;99114.06;5026410;28;20041;-57
2023/10/27 05:11:08;;;;;;;1.83;1.73;;;;;;;20.99;90.17;99110.84;5057604;28;20047;-56
2023/10/27 05:13:33;;;;;;;2.03;1.70;;;;;;;20.98;90.05;99107.28;5024211;28;20043;-57
2023/10/27 05:15:59;;;;;;;2.00;1.80;;;;;;;20.98;89.92;99109.22;5024251;28;20032;-42
2023/10/27 05:18:25;;;;;;;2.20;2.00;;;;;;;20.96;89.80;99109.56;5032883;28;20062;-42
2023/10/27 05:20:50;;;;;;;2.08;1.90;;;;;;;20.95;89.79;99104.41;5025208;28;20040;-57
2023/10/27 05:23:16;;;;;;;1.98;1.88;;;;;;;20.93;89.87;99107.50;5025564;28;21008;-57
2023/10/27 05:25:41;;;;;;;1.90;1.80;;;;;;;20.92;89.90;99110.56;5053150;28;20032;-58
2023/10/27 05:28:10;;;;;;;2.10;1.88;;;;;;;20.88;90.17;99104.94;5024893;28;20531;-57
2023/10/27 05:30:36;;;;;;;2.13;1.75;;;;;;;20.83;89.88;99105.97;5024817;28;20155;-57
2023/10/27 05:33:01;;;;;;;2.65;1.90;;;;;;;20.81;90.08;99115.72;5024381;28;20300;-57
2023/10/27 05:35:27;;;;;;;1.83;1.73;;;;;;;20.78;90.22;99106.16;5041499;28;20037;-56
2023/10/27 05:37:52;;;;;;;2.15;1.77;;;;;;;20.72;90.48;99110.25;5025409;28;20152;-57
2023/10/27 05:40:18;;;;;;;2.30;2.10;;;;;;;20.69;90.53;99111.72;5058243;28;20020;-42
2023/10/27 05:42:43;;;;;;;2.40;1.98;;;;;;;20.65;90.97;99110.78;5024832;28;20041;-42
2023/10/27 05:45:11;;;;;;;2.00;1.90;;;;;;;20.60;90.94;99108.25;5025009;28;20048;-42
2023/10/27 05:47:39;;;;;;;1.90;1.80;;;;;;;20.56;91.18;99110.03;5057729;28;20747;-41
2023/10/27 05:50:06;;;;;;;4.55;2.10;;;;;;;20.52;91.33;99111.84;5025301;28;20029;-42
2023/10/27 05:52:32;;;;;;;2.17;1.98;;;;;;;20.47;91.50;99104.59;5026369;28;20071;-42
2023/10/27 05:54:57;;;;;;;2.30;1.80;;;;;;;20.46;91.62;99111.25;5025125;28;20033;-43
2023/10/27 05:57:23;;;;;;;1.80;1.70;;;;;;;20.46;91.42;99102.19;5025941;28;20097;-42
2023/10/27 05:59:48;;;;;;;1.95;1.80;;;;;;;20.48;91.69;99102.66;5040108;28;20028;-42
2023/10/27 06:02:13;;;;;;;1.90;1.75;;;;;;;20.50;91.53;99108.63;5026591;28;20159;-42
2023/10/27 06:04:39;;;;;;;1.95;1.85;;;;;;;20.55;91.34;99107.63;5028865;28;20029;-43
2023/10/27 06:07:04;;;;;;;2.47;2.00;;;;;;;20.56;91.53;99107.28;5029363;28;20439;-42
2023/10/27 06:09:31;;;;;;;2.53;2.00;;;;;;;20.58;91.59;99110.50;5029404;28;20033;-44
2023/10/27 06:11:57;;;;;;;2.00;1.83;;;;;;;20.60;91.16;99107.41;5028715;28;20028;-42
2023/10/27 06:14:22;;;;;;;3.75;1.73;;;;;;;20.59;91.23;99117.63;5034962;28;20543;-54
2023/10/27 06:16:48;;;;;;;2.35;2.15;;;;;;;20.58;91.03;99113.25;5061704;28;20080;-58
2023/10/27 06:19:13;;;;;;;2.90;2.08;;;;;;;20.55;91.68;99119.47;5028652;28;20042;-58
2023/10/27 06:21:39;;;;;;;2.25;2.05;;;;;;;20.50;91.70;99114.94;5028256;28;20468;-55
2023/10/27 06:24:04;;;;;;;2.53;2.10;;;;;;;20.48;91.42;99119.19;5027169;28;20048;-57
2023/10/27 06:26:30;;;;;;;2.67;2.15;;;;;;;20.44;91.94;99110.78;5030266;28;20049;-55
2023/10/27 06:28:57;;;;;;;2.85;2.20;;;;;;;20.42;91.95;99117.78;5028182;28;20421;-56
2023/10/27 06:31:23;;;;;;;2.20;1.98;;;;;;;20.40;92.21;99114.53;5028189;28;20397;-55
2023/10/27 06:33:48;;;;;;;2.25;2.03;;;;;;;20.36;92.31;99120.69;5028019;28;21229;-55
2023/10/27 06:36:13;;;;;;;2.95;1.98;;;;;;;20.32;92.40;99122.50;5026948;28;20064;-56
2023/10/27 06:38:39;;;;;;;2.30;1.92;;;;;;;20.29;92.52;99123.16;5029056;28;20038;-56
2023/10/27 06:41:04;;;;;;;2.40;2.20;;;;;;;20.27;92.71;99119.16;5027199;28;20609;-56
2023/10/27 06:43:30;;;;;;;2.10;1.90;;;;;;;20.26;92.85;99118.34;5028159;28;20138;-42
2023/10/27 06:45:56;;;;;;;2.83;2.30;;;;;;;20.24;92.78;99117.88;5028352;28;20047;-40
2023/10/27 06:48:21;;;;;;;4.93;1.98;;;;;;;20.23;92.70;99124.50;5029719;28;20449;-42
2023/10/27 06:50:47;;;;;;;3.00;2.15;;;;;;;20.20;92.77;99125.97;5028136;28;20028;-42
2023/10/27 06:53:13;;;;;;;3.63;2.30;;;;;;;20.19;93.07;99121.63;5028379;28;20037;-40
2023/10/27 06:55:38;;;;;;;2.72;2.30;;;;;;;20.17;92.83;99120.34;5025816;28;20686;-41
2023/10/27 06:58:04;;;;;;;2.55;2.35;;;;;;;20.15;93.14;99128.94;5060784;28;20071;-41
2023/10/27 07:00:30;;;;;;;2.35;1.90;;;;;;;20.12;93.39;99129.63;5060884;28;20086;-41
2023/10/27 07:02:56;;;;;;;2.40;2.17;;;;;;;20.10;93.15;99134.63;5044193;28;20090;-41
2023/10/27 07:05:23;;;;;;;2.58;2.20;;;;;;;20.08;93.32;99139.66;5028617;28;20534;-42
2023/10/27 07:07:48;;;;;;;2.20;1.98;;;;;;;20.05;93.66;99132.06;5042401;28;20040;-40
2023/10/27 07:10:14;;;;;;;3.35;2.53;;;;;;;20.04;93.79;99141.47;5029713;28;20033;-41
2023/10/27 07:12:39;;;;;;;4.45;2.50;;;;;;;20.01;93.83;99142.09;5028067;28;20044;-41
2023/10/27 07:15:05;;;;;;;4.07;2.42;;;;;;;19.99;93.98;99142.44;5026253;28;20124;-56
2023/10/27 07:17:31;;;;;;;2.95;2.30;;;;;;;19.98;93.64;99151.03;5028028;28;20175;-55
2023/10/27 07:19:56;;;;;;;3.33;2.47;;;;;;;19.97;94.00;99143.91;5028594;28;20033;-56
2023/10/27 07:22:22;;;;;;;3.25;2.58;;;;;;;19.94;94.12;99148.13;5028162;28;20033;-56
2023/10/27 07:24:47;;;;;;;2.80;2.40;;;;;;;19.92;94.14;99147.66;5028168;28;20044;-57
2023/10/27 07:27:13;;;;;;;3.05;2.63;;;;;;;19.90;94.30;99141.66;5027371;28;20045;-57
2023/10/27 07:29:39;;;;;;;2.70;2.28;;;;;;;19.90;94.55;99149.13;5060463;28;20029;-56
2023/10/27 07:32:05;;;;;;;4.82;2.65;;;;;;;19.89;94.13;99156.56;5027612;28;20040;-55
2023/10/27 07:34:31;;;;;;;2.90;2.35;;;;;;;19.86;94.29;99146.22;5028499;28;20037;-41
2023/10/27 07:36:56;;;;;;;2.83;2.25;;;;;;;19.85;94.30;99145.44;5026714;28;20235;-42
2023/10/27 07:39:22;;;;;;;2.60;2.40;;;;;;;19.85;94.56;99141.84;5026901;28;20063;-42
2023/10/27 07:41:50;;;;;;;3.05;2.53;;;;;;;19.84;94.51;99145.75;5027353;28;20044;-56
2023/10/27 07:44:15;;;;;;;2.40;2.20;;;;;;;19.82;94.58;99151.53;5058394;28;20056;-56
2023/10/27 07:46:40;;;;;;;2.80;2.50;;;;;;;19.81;94.68;99155.41;5027388;28;20029;-57
2023/10/27 07:49:06;;;;;;;4.15;2.60;;;;;;;19.80;94.30;99150.25;5024951;28;20091;-57
2023/10/27 07:51:32;;;;;;;3.67;2.55;;;;;;;19.78;94.49;99156.09;5028355;28;20037;-55
2023/10/27 07:53:57;;;;;;;5.05;2.83;;;;;;;19.77;94.98;99159.97;5026843;28;20036;-41
2023/10/27 07:56:23;;;;;;;3.22;2.60;;;;;;;19.76;95.02;99163.06;5027389;28;20044;-57
2023/10/27 07:58:48;;;;;;;4.70;3.00;;;;;;;19.74;95.02;99160.63;5025453;28;20037;-56
2023/10/27 08:01:15;;;;;;;100.05;5.75;;;;;;;19.74;95.09;99157.88;5026772;28;20051;-40
2023/10/27 08:03:41;;;;;;;30.65;3.67;;;;;;;19.78;96.17;99160.78;5025245;28;20780;-41
2023/10/27 08:06:07;;;;;;;30.65;3.45;;;;;;;19.80;96.86;99166.75;5057586;28;20036;-40
2023/10/27 08:08:33;;;;;;;31.33;3.53;;;;;;;19.83;96.89;99163.38;5025376;28;20497;-40
2023/10/27 08:10:59;;;;;;;27.83;3.70;;;;;;;19.87;97.36;99169.84;5023088;28;20036;-39
2023/10/27 08:13:25;;;;;;;23.90;3.33;;;;;;;19.91;97.23;99165.28;5027707;28;20043;-41
2023/10/27 08:15:50;;;;;;;15.30;3.13;;;;;;;19.94;97.68;99169.31;5027078;28;20032;-40
2023/10/27 08:18:16;;;;;;;13.23;2.80;;;;;;;19.98;97.44;99170.28;5028350;28;20037;-40
2023/10/27 08:20:42;;;;;;;10.63;3.17;;;;;;;19.99;97.44;99166.41;5021280;28;20569;-40
2023/10/27 08:23:07;;;;;;;9.55;3.03;;;;;;;20.00;97.29;99166.06;5027605;28;20094;-40
2023/10/27 08:25:33;;;;;;;7.43;2.88;;;;;;;20.06;97.21;99174.13;5031170;28;20033;-42
2023/10/27 08:27:58;;;;;;;12.02;3.40;;;;;;;20.08;97.40;99171.84;5028798;28;20182;-40
2023/10/27 08:30:24;;;;;;;5.75;2.85;;;;;;;20.09;97.26;99174.25;5025915;28;20124;-42
2023/10/27 08:32:49;;;;;;;4.88;2.92;;;;;;;20.10;97.08;99178.63;5028650;28;20568;-43
2023/10/27 08:35:15;;;;;;;6.47;2.85;;;;;;;20.13;97.21;99169.69;5029514;28;20041;-50
2023/10/27 08:37:40;;;;;;;4.78;3.00;;;;;;;20.15;97.15;99177.66;5025991;28;20036;-48
2023/10/27 08:40:16;;;;;;;6.85;2.80;;;;;;;20.16;96.94;99176.50;5026768;28;20032;-49
2023/10/27 08:42:42;;;;;;;4.85;2.60;;;;;;;20.16;96.45;99182.00;5026947;28;20669;-39
2023/10/27 08:45:08;;;;;;;3.63;2.70;;;;;;;20.17;96.72;99176.16;5015195;28;20056;-40
2023/10/27 08:47:34;;;;;;;4.97;2.97;;;;;;;20.19;96.66;99186.84;5026362;28;20694;-42
2023/10/27 08:50:01;;;;;;;3.95;2.53;;;;;;;20.19;96.16;99179.38;5026864;28;20737;-38
2023/10/27 08:52:30;;;;;;;5.05;3.08;;;;;;;20.22;95.94;99179.84;5027899;28;20534;-39
2023/10/27 08:54:55;;;;;;;6.78;2.47;;;;;;;20.22;95.97;99179.84;5039744;28;20043;-40
2023/10/27 08:57:20;;;;;;;6.18;2.50;;;;;;;20.23;95.80;99176.78;5027569;28;20037;-37
2023/10/27 08:59:47;;;;;;;4.90;2.65;;;;;;;20.24;95.98;99172.09;5025423;28;20063;-40
2023/10/27 09:02:12;;;;;;;3.47;2.63;;;;;;;20.24;95.65;99170.13;5025631;28;20040;-38
2023/10/27 09:04:43;;;;;;;3.65;2.60;;;;;;;20.25;95.93;99171.75;5027186;28;20012;-40
2023/10/27 09:07:08;;;;;;;3.35;2.60;;;;;;;20.24;95.51;99166.59;5026433;28;20449;-40
2023/10/27 09:09:34;;;;;;;4.50;2.83;;;;;;;20.25;95.45;99171.75;5026231;28;20036;-39
2023/10/27 09:12:00;;;;;;;3.60;2.72;;;;;;;20.26;95.85;99176.13;5025400;28;20032;-38
2023/10/27 09:14:31;;;;;;;3.65;2.80;;;;;;;20.26;95.79;99176.13;5059115;28;20040;-40
2023/10/27 09:17:08;;;;;;;3.35;2.65;;;;;;;20.26;95.56;99175.31;5026459;28;20658;-41
2023/10/27 09:19:33;;;;;;;3.40;2.60;;;;;;;20.26;95.80;99173.38;5026608;28;20373;-38
2023/10/27 09:21:59;;;;;;;3.00;2.45;;;;;;;20.27;95.50;99171.41;5058415;28;20028;-39
2023/10/27 09:24:26;;;;;;;4.93;2.78;;;;;;;20.27;95.61;99168.66;5059514;28;20087;-41
2023/10/27 09:26:52;;;;;;;10.27;3.17;;;;;;;20.28;95.03;99184.03;5026811;28;20163;-41
2023/10/27 09:29:19;;;;;;;5.63;3.33;;;;;;;20.29;95.25;99180.16;5027950;28;20040;-44
2023/10/27 09:31:44;;;;;;;6.85;2.47;;;;;;;20.28;96.08;99179.34;5042723;28;20218;-47
2023/10/27 09:34:25;;;;;;;9.25;3.20;;;;;;;20.27;96.06;99186.00;5025259;28;20044;-46
2023/10/27 09:36:56;;;;;;;13.45;3.80;;;;;;;20.25;95.68;99188.25;5025076;28;20050;-45
2023/10/27 09:39:23;;;;;;;8.88;3.75;;;;;;;20.21;95.63;99187.31;5027420;28;20164;-48
2023/10/27 09:41:58;;;;;;;11.43;4.20;;;;;;;20.18;95.61;99190.72;5027431;28;20021;-45
2023/10/27 09:44:34;;;;;;;16.23;4.22;;;;;;;20.13;95.78;99186.19;5025251;28;20049;-45
2023/10/27 09:47:02;;;;;;;15.95;4.53;;;;;;;20.09;95.98;99189.97;5045358;28;20815;-44
2023/10/27 09:49:33;;;;;;;15.10;4.78;;;;;;;20.05;95.97;99192.56;5061421;28;20146;-44
2023/10/27 09:52:00;;;;;;;17.98;4.50;;;;;;;20.01;96.25;99194.34;5045653;28;20043;-46
2023/10/27 09:54:30;;;;;;;13.07;4.90;;;;;;;19.98;96.33;99195.81;5027662;28;20572;-43
2023/10/27 09:56:58;;;;;;;13.45;4.70;;;;;;;19.96;96.62;99183.53;5046476;28;20276;-44
2023/10/27 09:59:23;;;;;;;13.02;4.72;;;;;;;19.92;96.72;99191.63;5061599;28;20039;-45
2023/10/27 10:01:48;;;;;;;14.70;4.53;;;;;;;19.92;96.74;99190.84;5041644;28;20374;-39
2023/10/27 10:04:14;;;;;;;28.70;5.03;;;;;;;19.90;97.29;99191.16;5063850;28;20025;-38
2023/10/27 10:06:39;;;;;;;57.17;6.40;;;;;;;19.91;98.09;99190.03;5045713;28;20038;-39
2023/10/27 10:09:10;;;;;;;43.70;6.32;;;;;;;19.92;98.83;99193.59;5028867;28;21120;-40
2023/10/27 10:11:47;;;;;;;44.75;6.55;;;;;;;19.95;99.34;99195.66;5046643;28;20040;-41
2023/10/27 10:14:42;;;;;;;40.63;7.78;;;;;;;19.96;99.60;99192.63;5046351;28;20033;-41
2023/10/27 10:17:08;;;;;;;39.95;8.48;;;;;;;19.99;99.44;99186.44;5044834;28;20089;-40
2023/10/27 10:19:50;;;;;;;52.10;11.10;;;;;;;20.01;99.48;99192.44;5045555;28;20467;-41
2023/10/27 10:22:37;;;;;;;66.47;13.90;;;;;;;20.04;99.68;99194.50;5046295;28;20473;-41
2023/10/27 10:25:18;;;;;;;63.03;15.45;;;;;;;20.08;99.81;99199.34;5041887;28;20045;-41
2023/10/27 10:28:16;;;;;;;68.93;15.50;;;;;;;20.09;99.65;99195.47;5059571;28;20028;-39
2023/10/27 10:30:43;;;;;;;68.90;15.65;;;;;;;20.10;99.45;99197.88;5045954;28;20032;-45
2023/10/27 10:33:16;;;;;;;67.53;16.10;;;;;;;20.10;99.30;99197.06;5044940;28;20048;-44
2023/10/27 10:35:47;;;;;;;72.57;15.93;;;;;;;20.07;99.32;99197.72;5044576;28;20047;-46
2023/10/27 10:38:22;;;;;;;59.35;13.73;;;;;;;20.04;98.97;99204.69;5044138;28;20542;-44
2023/10/27 10:40:55;;;;;;;51.75;13.63;;;;;;;20.00;98.64;99193.56;5044731;28;21773;-45
2023/10/27 10:43:24;;;;;;;45.72;13.02;;;;;;;19.97;98.94;99198.91;5027444;28;21252;-44
2023/10/27 10:45:55;;;;;;;57.15;13.18;;;;;;;19.95;98.41;99192.91;5033674;28;20294;-44
2023/10/27 10:48:21;;;;;;;48.70;12.45;;;;;;;19.92;98.74;99186.16;5044439;28;20043;-54
2023/10/27 10:50:49;;;;;;;54.03;12.48;;;;;;;19.88;98.76;99191.50;5045827;28;20113;-45
2023/10/27 10:53:16;;;;;;;47.58;12.32;;;;;;;19.87;98.74;99183.59;5048007;28;20430;-45
2023/10/27 10:55:49;;;;;;;37.60;10.98;;;;;;;19.85;98.51;99183.09;5062756;28;20070;-56
2023/10/27 10:58:25;;;;;;;35.40;10.82;;;;;;;19.83;98.48;99175.19;5032807;28;20036;-56
2023/10/27 11:00:53;;;;;;;35.22;11.40;;;;;;;19.82;98.62;99181.78;5016989;28;20040;-56
2023/10/27 11:03:21;;;;;;;35.95;10.85;;;;;;;19.81;98.42;99180.16;5021877;28;20032;-55
2023/10/27 11:05:47;;;;;;;35.55;10.43;;;;;;;19.81;98.49;99184.88;5048840;28;20070;-56
2023/10/27 11:08:22;;;;;;;31.58;9.65;;;;;;;19.79;98.64;99185.19;5046992;28;20028;-55
2023/10/27 11:10:48;;;;;;;29.00;9.98;;;;;;;19.78;98.48;99183.59;5049392;28;20031;-55
2023/10/27 11:13:13;;;;;;;29.58;9.52;;;;;;;19.77;98.47;99179.22;5046580;28;20125;-55
2023/10/27 11:15:43;;;;;;;26.35;7.88;;;;;;;19.77;98.60;99181.97;5065844;28;20035;-56
2023/10/27 11:18:13;;;;;;;28.30;8.77;;;;;;;19.77;98.68;99181.19;5047670;28;20036;-55
2023/10/27 11:20:39;;;;;;;29.00;8.05;;;;;;;19.77;98.28;99175.69;5048165;28;20036;-55
2023/10/27 11:23:08;;;;;;;18.98;7.25;;;;;;;19.73;98.43;99168.06;5022386;28;20996;-55
2023/10/27 11:25:34;;;;;;;19.67;7.80;;;;;;;19.75;98.50;99178.72;5049230;28;20039;-56
2023/10/27 11:28:26;;;;;;;20.25;6.63;;;;;;;19.75;98.24;99173.22;5031368;28;20405;-57